Flight Track Log - Related Links

Times and Time Zones

All times are in EDT time to prevent confusion due to time zone crossing. See the DAL6234 flight status page for this flight to view local times or setup timezone preferences in your user account.

Time Position Orientation Groundspeed Altitude Reporting Facility
EDT Latitude Longitude Course Direction KTS MPH feet Rate Location/Type
Thu 05:05:53 PM 40.7589 -73.7764 313° West 243 280 4,000  Level New York Center
Thu 05:06:08 PM 40.7833 -73.7833 348° North 248 285 5,200 2,880 Climbing New York TRACON
Thu 05:07:08 PM 40.8167 -73.8500 303° West 233 268 7,600 1,950 Climbing New York TRACON
Thu 05:08:08 PM 40.8500 -73.9333 298° West 257 296 9,100 1,300 Climbing New York TRACON
Thu 05:09:08 PM 40.8833 -74.0167 298° West 266 306 10,200 2,100 Climbing New York TRACON
Thu 05:10:00 PM 41.0483 -74.3046 313° West  Level FlightAware Approximate
Thu 05:10:08 PM 40.9333 -74.0833 315° West 266 306 13,300  Level New York TRACON
Thu 05:11:00 PM 41.0984 -74.3761 313° West  Level FlightAware Approximate
Thu 05:11:54 PM 41.0131 -74.2250 307° West 278 320 16,000  Level New York Center
Thu 05:12:55 PM 41.0750 -74.3217 310° West 306 352 16,000  Level New York Center
Thu 05:13:52 PM 41.1222 -74.4042 307° West 311 358 16,000  Level New York Center
Thu 05:14:54 PM 41.1839 -74.5011 310° West 305 351 16,000 634 Level New York Center
Thu 05:15:55 PM 41.2353 -74.5894 308° West 305 351 17,300 1,780 Climbing New York Center
Thu 05:16:52 PM 41.2925 -74.6867 308° West 311 358 19,500 2,186 Climbing New York Center
Thu 05:17:53 PM 41.3519 -74.7783 311° West 316 364 21,600 1,230 Climbing New York Center
Thu 05:18:54 PM 41.4150 -74.8792 310° West 334 384 22,000 197 Climbing New York Center
Thu 05:19:55 PM 41.4783 -74.9769 311° West 346 398 22,000  Level New York Center
Thu 05:20:52 PM 41.5392 -75.0750 310° West 346 398 22,000  Level New York Center
Thu 05:21:54 PM 41.5981 -75.1731 309° West 341 392 22,000  Level New York Center
Thu 05:22:54 PM 41.6550 -75.2686 309° West 341 392 22,000  Level New York Center
Thu 05:23:54 PM 41.7075 -75.3611 307° West 331 381 22,000  Level New York Center
Thu 05:24:55 PM 41.7642 -75.4567 309° West 331 381 22,000  Level New York Center
Thu 05:25:53 PM 41.8208 -75.5553 308° West 331 381 22,000  Level New York Center
Thu 05:26:53 PM 41.8772 -75.6511 308° West 331 381 22,000  Level New York Center
Thu 05:27:54 PM 41.9356 -75.7503 308° West 331 381 22,000  Level New York Center
Thu 05:28:55 PM 41.9939 -75.8494 308° West 336 387 22,000 -793 Level New York Center
Thu 05:29:55 PM 42.0500 -75.9461 308° West 336 387 20,400 -1,831 Descending New York Center
Thu 05:30:53 PM 42.1039 -76.0453 306° West 331 381 18,400 -1,932 Descending New York Center
Thu 05:31:53 PM 42.1628 -76.1283 314° West 331 381 16,600 -1,650 Descending New York Center
Thu 05:32:53 PM 42.2522 -76.1300 359° North 293 337 15,100 -1,537 Descending New York Center
Thu 05:33:54 PM 42.3486 -76.1156 North 305 351 13,500 -1,556 Descending New York Center
Thu 05:34:41 PM 42.4222 -76.1108 North 339 390 12,300 -1,333 Descending Boston Center
Thu 05:35:42 PM 42.5144 -76.0967 North 336 387 11,100 -787 Descending Boston Center
Thu 05:36:43 PM 42.6003 -76.0847 North 306 352 10,700 -992 Descending Boston Center
Thu 05:37:43 PM 42.6839 -76.0783 North 270 311 9,100 -1,636 Descending Boston Center
Thu 05:38:44 PM 42.7614 -76.0717 North 276 318 7,400 -1,672 Descending Boston Center
Thu 05:39:45 PM 42.8367 -76.0647 North 267 307 5,700 -1,686 Descending Boston Center
Thu 05:40:45 PM 42.9075 -76.0631 North 257 296 4,000 -942 Descending Boston Center
Thu 05:41:46 PM 42.9767 -76.0558 North 249 287 3,800 -595 Descending Boston Center
Thu 05:42:46 PM 43.0358 -76.0308 17° North 216 249 2,800 -1,140 Descending Boston Center
Thu 05:43:47 PM 43.0769 -76.0506 341° North 136 157 1,500 -984 Descending Boston Center
Thu 05:44:48 PM 43.0967 -76.0858 307° West 108 124 800 -689 Descending Boston Center

Login

Don't have an account? Register now (free) for customized features, flight alerts, and more!